Time;durP1;ratioP1;P1;durP2;ratioP2;P2;SDS_P1;SDS_P2;PMS_P1;PMS_P2;Temp;Humidity;BMP_temperature;BMP_pressure;BME280_temperature;BME280_humidity;BME280_pressure;Samples;Min_cycle;Max_cycle;Signal;HPM_P1;HPM_P2
2021/09/21 00:04:35;;;;;;;1.90;1.80;;;18.00;73.00;;;;;;10441258;28;20188;-63
2021/09/21 00:09:57;;;;;;;1.97;1.77;;;18.00;73.00;;;;;;10453151;28;20217;-63
2021/09/21 00:15:21;;;;;;;2.37;1.97;;;18.00;73.00;;;;;;10451493;28;20553;-63
2021/09/21 00:20:44;;;;;;;1.83;1.73;;;18.00;73.00;;;;;;10443870;28;20213;-62
2021/09/21 00:26:06;;;;;;;2.87;1.80;;;18.00;73.00;;;;;;10433049;28;20205;-63
2021/09/21 00:31:37;;;;;;;2.03;1.60;;;18.00;73.00;;;;;;10441467;28;20221;-64
2021/09/21 00:37:00;;;;;;;3.43;1.67;;;18.00;73.00;;;;;;10419521;28;20667;-63
2021/09/21 00:42:29;;;;;;;1.70;1.60;;;18.00;73.00;;;;;;10443728;28;20224;-62
2021/09/21 00:47:51;;;;;;;1.90;1.53;;;18.00;73.00;;;;;;10450618;28;20212;-63
2021/09/21 00:53:16;;;;;;;3.20;1.80;;;18.00;73.00;;;;;;10448230;28;20228;-65
2021/09/21 00:58:38;;;;;;;1.80;1.47;;;17.90;73.00;;;;;;10450439;28;20193;-64
2021/09/21 01:04:01;;;;;;;1.63;1.53;;;18.00;73.00;;;;;;10449366;28;20679;-63
2021/09/21 01:09:27;;;;;;;2.03;1.80;;;17.90;72.90;;;;;;10450228;28;20635;-61
2021/09/21 01:14:49;;;;;;;2.03;1.83;;;18.00;73.00;;;;;;10449687;28;20196;-60
2021/09/21 01:20:13;;;;;;;1.63;1.53;;;17.90;72.90;;;;;;10435187;28;20210;-64
2021/09/21 01:25:36;;;;;;;1.70;1.60;;;18.00;72.90;;;;;;10435283;28;20538;-60
2021/09/21 01:30:58;;;;;;;1.50;1.40;;;17.90;73.50;;;;;;10430589;28;20221;-59
2021/09/21 01:36:23;;;;;;;1.50;1.40;;;17.90;72.90;;;;;;10437613;28;20576;-60
2021/09/21 01:41:47;;;;;;;1.87;1.73;;;18.00;73.00;;;;;;10449871;28;20209;-62
2021/09/21 01:47:09;;;;;;;1.77;1.30;;;17.90;72.90;;;;;;10449881;28;20188;-63
2021/09/21 01:52:35;;;;;;;2.00;1.80;;;17.90;72.90;;;;;;10449829;28;20700;-63
2021/09/21 02:03:38;;;;;;;1.70;1.60;;;17.90;72.90;;;;;;10448208;28;20292;-59
2021/09/21 02:09:00;;;;;;;2.33;1.70;;;17.90;72.90;;;;;;10449693;28;20196;-59
2021/09/21 02:14:24;;;;;;;1.50;1.40;;;17.90;72.90;;;;;;10444140;28;20225;-63
2021/09/21 02:19:46;;;;;;;2.47;1.60;;;17.90;72.90;;;;;;10448397;28;20220;-61
2021/09/21 02:25:09;;;;;;;1.73;1.63;;;17.90;72.90;;;;;;10453201;28;20683;-60
2021/09/21 02:30:32;;;;;;;1.70;1.53;;;17.90;73.00;;;;;;10454472;28;20224;-61
2021/09/21 02:35:55;;;;;;;2.37;1.83;;;17.90;72.90;;;;;;10456089;28;20201;-62
2021/09/21 02:41:17;;;;;;;1.50;1.40;;;17.90;72.90;;;;;;10443641;28;20220;-62
2021/09/21 02:46:40;;;;;;;3.07;1.80;;;17.90;72.90;;;;;;10432196;28;20194;-61
2021/09/21 02:52:03;;;;;;;1.47;1.37;;;17.90;72.90;;;;;;10446637;28;20221;-65
2021/09/21 02:57:25;;;;;;;1.53;1.33;;;17.90;72.90;;;;;;10455745;28;20212;-64
2021/09/21 03:02:48;;;;;;;1.40;1.30;;;17.90;72.90;;;;;;10453644;28;20295;-60
2021/09/21 03:08:13;;;;;;;1.60;1.50;;;17.90;72.90;;;;;;10456023;28;20191;-63
2021/09/21 03:19:18;;;;;;;3.60;1.70;;;17.90;72.90;;;;;;10422869;28;20213;-62
2021/09/21 03:24:41;;;;;;;1.43;1.33;;;17.90;72.90;;;;;;10441756;28;20208;-64
2021/09/21 03:30:03;;;;;;;2.47;1.50;;;17.90;72.90;;;;;;10450119;28;20703;-65
2021/09/21 03:35:27;;;;;;;1.60;1.50;;;17.90;72.90;;;;;;10437873;28;20592;-62
2021/09/21 03:40:49;;;;;;;1.50;1.40;;;17.90;72.90;;;;;;10454728;28;20419;-60
2021/09/21 03:51:42;;;;;;;1.43;1.30;;;17.90;72.90;;;;;;10453109;28;20358;-63
2021/09/21 03:57:04;;;;;;;1.70;1.57;;;17.90;73.00;;;;;;10454728;28;20408;-60
2021/09/21 04:02:26;;;;;;;1.97;1.60;;;17.90;73.00;;;;;;10452655;28;20209;-61
2021/09/21 04:07:51;;;;;;;1.47;1.33;;;17.90;72.90;;;;;;10452941;28;20572;-62
2021/09/21 04:13:13;;;;;;;1.53;1.43;;;17.90;73.00;;;;;;10434176;28;20216;-63
2021/09/21 04:18:35;;;;;;;1.47;1.23;;;17.90;73.60;;;;;;10452351;28;20193;-61
2021/09/21 04:23:58;;;;;;;2.17;1.50;;;17.90;73.10;;;;;;10451618;28;20188;-62
2021/09/21 04:29:20;;;;;;;1.30;1.20;;;17.90;73.00;;;;;;10443364;28;20222;-65
2021/09/21 04:34:42;;;;;;;2.30;1.63;;;17.90;73.10;;;;;;10427737;28;20209;-63
2021/09/21 04:40:08;;;;;;;1.93;1.63;;;17.90;73.00;;;;;;10446640;28;20693;-63
2021/09/21 04:45:30;;;;;;;1.77;1.50;;;17.80;73.00;;;;;;10448374;28;20201;-65
2021/09/21 04:50:53;;;;;;;1.50;1.40;;;17.90;73.10;;;;;;10408807;28;20239;-65
2021/09/21 04:56:16;;;;;;;1.77;1.67;;;17.90;73.20;;;;;;10449952;28;20201;-64
2021/09/21 05:01:38;;;;;;;2.17;1.67;;;17.80;73.10;;;;;;10449908;28;20217;-65
2021/09/21 05:07:00;;;;;;;1.50;1.40;;;17.80;73.20;;;;;;10451822;28;20197;-60
2021/09/21 05:12:24;;;;;;;2.20;1.67;;;17.80;73.00;;;;;;10432288;28;20221;-64
2021/09/21 05:17:46;;;;;;;1.60;1.50;;;17.90;73.10;;;;;;10448580;28;20204;-62
2021/09/21 05:23:08;;;;;;;2.93;1.47;;;17.80;73.30;;;;;;10450516;28;20681;-61
2021/09/21 05:28:31;;;;;;;1.40;1.30;;;17.80;73.20;;;;;;10422914;28;20225;-64
2021/09/21 05:33:54;;;;;;;1.60;1.50;;;17.80;72.70;;;;;;10408647;28;20700;-57
2021/09/21 05:39:16;;;;;;;1.63;1.53;;;17.80;73.00;;;;;;10448388;28;20221;-57
2021/09/21 05:44:39;;;;;;;1.60;1.50;;;17.80;73.00;;;;;;10451205;28;20247;-64
2021/09/21 05:50:02;;;;;;;1.70;1.60;;;17.90;73.00;;;;;;10449898;28;20221;-65
2021/09/21 05:55:25;;;;;;;1.83;1.57;;;17.90;73.10;;;;;;10465059;23;20233;-69
2021/09/21 06:00:48;;;;;;;3.13;1.53;;;17.80;73.10;;;;;;10367339;28;20328;-68
2021/09/21 06:06:10;;;;;;;2.30;1.87;;;17.80;73.20;;;;;;10383902;28;20318;-69
2021/09/21 06:11:34;;;;;;;3.17;2.43;;;17.80;71.20;;;;;;10375746;28;20644;-70
2021/09/21 06:16:57;;;;;;;2.30;1.90;;;17.70;69.60;;;;;;10365553;28;20231;-69
2021/09/21 06:22:19;;;;;;;3.17;2.33;;;17.70;69.40;;;;;;10338012;28;20691;-67
2021/09/21 06:27:42;;;;;;;2.97;2.13;;;17.70;68.70;;;;;;10374206;28;20743;-69
2021/09/21 06:33:06;;;;;;;2.97;2.23;;;17.60;68.50;;;;;;10375458;28;20221;-67
2021/09/21 06:38:28;;;;;;;3.27;2.50;;;17.60;68.10;;;;;;10374385;28;20630;-67
2021/09/21 06:43:50;;;;;;;2.50;2.30;;;17.60;68.00;;;;;;10372393;28;20198;-67
2021/09/21 06:49:13;;;;;;;3.90;2.50;;;17.60;67.70;;;;;;10393793;28;20223;-67
2021/09/21 06:54:35;;;;;;;4.20;2.43;;;17.60;67.50;;;;;;10343950;28;20225;-67
2021/09/21 06:59:58;;;;;;;3.60;2.47;;;17.60;67.40;;;;;;10374460;28;20222;-68
2021/09/21 07:05:22;;;;;;;3.70;2.13;;;17.60;67.40;;;;;;10372916;28;20241;-67
2021/09/21 07:10:44;;;;;;;2.63;2.30;;;17.60;67.40;;;;;;10364860;28;20202;-57
2021/09/21 07:16:07;;;;;;;3.20;2.27;;;17.50;67.20;;;;;;10333841;28;20608;-58
2021/09/21 07:21:30;;;;;;;3.43;2.37;;;17.50;66.80;;;;;;10332997;28;20687;-57
2021/09/21 07:26:53;;;;;;;6.17;2.73;;;17.50;66.40;;;;;;10357268;28;20219;-62
2021/09/21 07:32:15;;;;;;;3.27;2.73;;;17.60;66.30;;;;;;10373390;28;20210;-59
2021/09/21 07:37:38;;;;;;;3.70;2.43;;;17.60;66.30;;;;;;10372936;28;20643;-58
2021/09/21 07:43:00;;;;;;;2.60;2.40;;;17.50;66.80;;;;;;10371409;28;20267;-58
2021/09/21 07:48:22;;;;;;;2.80;2.23;;;17.50;66.40;;;;;;10397880;28;20698;-58
2021/09/21 07:53:46;;;;;;;3.13;2.70;;;17.60;66.60;;;;;;10376898;28;20210;-59
2021/09/21 07:59:08;;;;;;;2.40;2.20;;;17.60;66.70;;;;;;10371752;28;20577;-56
2021/09/21 08:04:30;;;;;;;3.20;2.80;;;17.60;66.80;;;;;;10371627;28;20193;-58
2021/09/21 08:09:54;;;;;;;4.77;2.70;;;17.60;66.90;;;;;;10372341;28;20241;-58
2021/09/21 08:15:16;;;;;;;3.10;2.60;;;17.60;67.00;;;;;;10371823;28;20222;-59
2021/09/21 08:20:39;;;;;;;3.27;2.60;;;17.60;67.00;;;;;;10339047;28;20203;-60
2021/09/21 08:26:03;;;;;;;3.63;2.57;;;17.60;67.20;;;;;;10331999;28;20218;-58
2021/09/21 08:31:25;;;;;;;2.90;2.47;;;17.60;67.40;;;;;;10338891;28;20210;-58
2021/09/21 08:36:49;;;;;;;4.97;2.30;;;17.60;67.40;;;;;;10371259;28;20696;-59
2021/09/21 08:42:13;;;;;;;4.37;2.47;;;17.60;67.10;;;;;;10366803;28;20205;-58
2021/09/21 08:47:36;;;;;;;2.60;2.00;;;17.60;67.20;;;;;;10373888;28;20233;-55
2021/09/21 08:52:58;;;;;;;2.30;2.10;;;17.60;67.40;;;;;;10370438;28;20229;-59
2021/09/21 08:58:25;;;;;;;2.97;2.10;;;17.60;67.90;;;;;;10368466;28;20572;-57
2021/09/21 09:03:58;;;;;;;4.00;2.10;;;17.60;68.20;;;;;;10369629;28;20194;-62
2021/09/21 09:09:22;;;;;;;2.27;2.07;;;17.60;68.50;;;;;;10368986;28;20710;-62
2021/09/21 09:14:45;;;;;;;1.50;1.40;;;17.60;68.70;;;;;;10345741;28;20710;-62
2021/09/21 09:20:09;;;;;;;2.30;1.83;;;17.60;68.80;;;;;;10369782;28;20220;-62
2021/09/21 09:25:31;;;;;;;1.70;1.60;;;17.70;69.00;;;;;;10366420;28;20214;-61
2021/09/21 09:30:56;;;;;;;2.40;1.57;;;17.70;69.10;;;;;;10367609;28;20193;-62
2021/09/21 09:36:22;;;;;;;1.40;1.30;;;17.70;69.30;;;;;;10368707;28;20240;-63
2021/09/21 09:41:46;;;;;;;1.73;1.47;;;17.70;69.50;;;;;;10369014;28;20705;-62
2021/09/21 09:47:09;;;;;;;1.40;1.30;;;17.70;69.70;;;;;;10372799;28;20224;-61
2021/09/21 09:52:37;;;;;;;1.60;1.30;;;17.70;69.80;;;;;;10371604;28;20573;-63
2021/09/21 09:57:59;;;;;;;2.00;1.40;;;17.70;70.00;;;;;;10327541;28;20302;-60
2021/09/21 10:03:23;;;;;;;2.00;1.47;;;17.70;70.20;;;;;;10330472;28;20197;-59
2021/09/21 10:08:46;;;;;;;2.17;1.57;;;17.80;70.30;;;;;;10333285;28;20692;-59
2021/09/21 10:14:08;;;;;;;1.30;1.20;;;17.80;70.40;;;;;;10353806;28;20222;-56
2021/09/21 10:19:34;;;;;;;1.63;1.30;;;17.80;71.10;;;;;;10375210;28;20225;-56
2021/09/21 10:25:05;;;;;;;2.13;0.97;;;17.80;70.60;;;;;;10372752;28;20695;-57
2021/09/21 10:30:29;;;;;;;1.30;0.93;;;17.80;70.70;;;;;;10366539;28;20191;-56
2021/09/21 10:35:53;;;;;;;1.80;1.10;;;17.80;70.90;;;;;;10367298;28;20229;-57
2021/09/21 10:41:15;;;;;;;1.33;1.20;;;17.80;70.90;;;;;;10368090;28;20190;-57
2021/09/21 10:46:51;;;;;;;1.33;1.20;;;17.80;71.00;;;;;;10382776;28;20218;-65
2021/09/21 10:52:16;;;;;;;2.50;1.60;;;17.80;71.00;;;;;;10382611;28;20218;-66
2021/09/21 10:57:40;;;;;;;3.10;1.23;;;17.80;71.30;;;;;;10371607;28;20236;-65
2021/09/21 11:03:04;;;;;;;1.40;1.20;;;17.80;71.10;;;;;;10373790;28;20203;-64
2021/09/21 11:08:32;;;;;;;2.07;1.30;;;17.80;71.10;;;;;;10374286;28;20222;-65
2021/09/21 11:13:55;;;;;;;1.07;0.97;;;17.80;71.10;;;;;;10373837;28;20218;-66
2021/09/21 11:19:18;;;;;;;1.70;1.27;;;17.80;71.10;;;;;;10380349;28;20237;-66
2021/09/21 11:24:41;;;;;;;1.13;1.03;;;17.80;71.10;;;;;;10380961;28;20202;-65
2021/09/21 11:30:07;;;;;;;1.80;1.20;;;17.80;71.10;;;;;;10352580;28;20210;-66
2021/09/21 11:35:30;;;;;;;1.57;1.30;;;17.80;71.20;;;;;;10367772;28;20218;-66
2021/09/21 11:40:53;;;;;;;1.33;1.10;;;17.80;71.20;;;;;;10358476;28;20670;-66
2021/09/21 11:46:15;;;;;;;2.00;1.23;;;17.80;71.20;;;;;;10341717;28;20202;-68
2021/09/21 11:51:38;;;;;;;1.20;1.00;;;17.80;71.20;;;;;;10382900;28;20224;-65
2021/09/21 11:57:02;;;;;;;1.10;1.00;;;17.80;71.20;;;;;;10340057;28;20229;-64
2021/09/21 12:02:25;;;;;;;2.53;1.10;;;17.80;71.30;;;;;;10363983;28;20198;-66
2021/09/21 12:07:47;;;;;;;1.73;1.37;;;17.80;71.30;;;;;;10366383;28;20214;-65
2021/09/21 12:13:15;;;;;;;1.77;1.00;;;17.90;71.40;;;;;;10338396;28;20449;-68
2021/09/21 12:18:38;;;;;;;1.33;1.10;;;17.80;71.40;;;;;;10355877;28;20706;-67
2021/09/21 12:24:06;;;;;;;1.23;1.13;;;17.80;71.50;;;;;;10343162;28;20575;-66
2021/09/21 12:29:34;;;;;;;3.30;1.60;;;17.80;71.60;;;;;;10363253;28;20221;-70
2021/09/21 12:35:01;;;;;;;2.10;1.70;;;17.80;71.60;;;;;;10347152;28;20309;-68
2021/09/21 12:40:23;;;;;;;2.93;1.80;;;17.80;71.70;;;;;;10348872;28;20206;-68
2021/09/21 12:45:47;;;;;;;2.13;1.80;;;17.80;71.80;;;;;;10334827;28;20210;-68
2021/09/21 12:51:11;;;;;;;4.27;2.20;;;17.80;71.90;;;;;;10327228;28;20214;-69
2021/09/21 12:56:34;;;;;;;3.73;2.33;;;17.80;71.90;;;;;;10338408;28;20510;-68
2021/09/21 13:01:59;;;;;;;4.30;2.53;;;17.80;71.90;;;;;;10360634;28;20245;-70
2021/09/21 13:07:21;;;;;;;4.30;2.70;;;17.80;72.00;;;;;;10389158;23;20694;-65
2021/09/21 13:12:43;;;;;;;4.57;2.60;;;17.80;72.00;;;;;;10397271;28;20586;-66
2021/09/21 13:18:07;;;;;;;3.53;2.70;;;17.80;72.10;;;;;;10384227;28;20598;-67
2021/09/21 13:23:29;;;;;;;7.07;3.20;;;17.80;72.20;;;;;;10410335;28;20210;-68
2021/09/21 13:28:52;;;;;;;5.60;2.97;;;17.80;72.40;;;;;;10410072;28;20205;-68
2021/09/21 13:34:16;;;;;;;6.80;3.30;;;17.80;72.50;;;;;;10395659;28;20222;-67
2021/09/21 13:39:38;;;;;;;5.50;2.50;;;17.90;72.50;;;;;;10360168;28;20205;-67
2021/09/21 13:45:00;;;;;;;4.90;2.87;;;17.90;72.40;;;;;;10369325;28;20222;-67
2021/09/21 13:50:26;;;;;;;7.47;3.20;;;17.90;72.50;;;;;;10329819;28;20199;-67
2021/09/21 13:55:48;;;;;;;6.67;3.00;;;17.90;72.70;;;;;;10359906;28;20733;-67
2021/09/21 14:01:10;;;;;;;5.00;2.50;;;17.90;72.70;;;;;;10328622;28;20568;-67
2021/09/21 14:06:34;;;;;;;7.82;3.67;;;17.90;72.50;;;;;;10351548;28;20427;-69
2021/09/21 14:11:56;;;;;;;4.30;2.50;;;18.00;72.10;;;;;;10372256;28;20202;-68
2021/09/21 14:17:19;;;;;;;4.70;2.20;;;18.00;72.10;;;;;;10367933;28;20219;-68
2021/09/21 14:22:42;;;;;;;7.37;2.73;;;17.90;72.30;;;;;;10375186;28;20206;-69
2021/09/21 14:28:05;;;;;;;5.97;2.88;;;17.90;72.50;;;;;;10379156;28;20420;-68
2021/09/21 14:33:27;;;;;;;3.67;2.47;;;17.90;72.60;;;;;;10362906;28;20230;-68
2021/09/21 14:38:51;;;;;;;5.03;2.90;;;17.90;72.40;;;;;;10352224;28;20560;-68
2021/09/21 14:44:13;;;;;;;4.77;2.63;;;17.90;72.60;;;;;;10375197;28;20823;-68
2021/09/21 14:49:35;;;;;;;7.07;2.63;;;17.90;72.60;;;;;;10376448;28;20202;-68
2021/09/21 14:54:59;;;;;;;3.73;2.40;;;17.80;72.60;;;;;;10376065;28;20241;-68
2021/09/21 15:00:22;;;;;;;3.77;2.40;;;17.80;72.60;;;;;;10389499;28;20197;-68
2021/09/21 15:05:44;;;;;;;3.37;2.37;;;17.80;72.70;;;;;;10400033;28;20229;-68
2021/09/21 15:11:09;;;;;;;4.60;2.33;;;17.80;72.60;;;;;;10335567;28;20710;-68
2021/09/21 15:16:32;;;;;;;4.57;2.33;;;17.80;72.70;;;;;;10341827;28;20228;-70
2021/09/21 15:21:54;;;;;;;2.50;1.93;;;17.80;72.70;;;;;;10366420;28;20202;-68
2021/09/21 15:27:17;;;;;;;2.93;2.30;;;17.80;72.70;;;;;;10373902;28;20218;-68
2021/09/21 15:32:39;;;;;;;2.67;1.93;;;17.80;72.70;;;;;;10369807;28;20367;-68
2021/09/21 15:38:07;;;;;;;3.97;2.40;;;17.80;72.70;;;;;;10364759;28;20217;-69
2021/09/21 15:43:30;;;;;;;2.80;2.27;;;17.80;72.60;;;;;;10374223;28;20218;-68
2021/09/21 15:48:52;;;;;;;3.60;2.17;;;17.80;72.60;;;;;;10372978;28;20195;-68
2021/09/21 15:54:15;;;;;;;2.20;1.87;;;17.80;72.60;;;;;;10373185;28;20222;-68
2021/09/21 15:59:40;;;;;;;2.83;2.13;;;17.80;72.70;;;;;;10373614;28;20217;-68
2021/09/21 16:05:04;;;;;;;3.00;2.00;;;17.80;72.80;;;;;;10372993;28;20229;-68
2021/09/21 16:10:34;;;;;;;2.47;1.93;;;17.80;72.80;;;;;;10372693;28;20206;-68
2021/09/21 16:15:57;;;;;;;2.47;1.87;;;17.80;72.80;;;;;;10372945;28;20222;-68
2021/09/21 16:21:20;;;;;;;3.17;1.90;;;17.70;72.70;;;;;;10365328;28;20194;-68
2021/09/21 16:26:46;;;;;;;2.63;2.17;;;17.80;72.70;;;;;;10374857;28;20225;-68
2021/09/21 16:32:11;;;;;;;3.60;1.83;;;17.80;72.70;;;;;;10374142;28;20685;-68
2021/09/21 16:37:33;;;;;;;4.17;2.20;;;17.80;72.80;;;;;;10342109;28;20298;-68
2021/09/21 16:42:56;;;;;;;2.27;1.67;;;17.80;72.80;;;;;;10374533;28;20193;-69
2021/09/21 16:48:20;;;;;;;2.60;2.10;;;17.80;72.80;;;;;;10376588;28;20208;-69
2021/09/21 16:53:42;;;;;;;2.53;1.83;;;17.80;72.80;;;;;;10376442;28;20222;-68
2021/09/21 16:59:05;;;;;;;2.63;1.87;;;17.80;72.80;;;;;;10376229;28;20195;-68
2021/09/21 17:04:28;;;;;;;2.53;1.97;;;17.80;72.80;;;;;;10337340;28;20305;-69
2021/09/21 17:09:51;;;;;;;1.50;1.40;;;17.80;73.00;;;;;;10354098;28;20210;-69
2021/09/21 17:15:13;;;;;;;1.83;1.50;;;17.80;73.20;;;;;;10373221;28;20218;-68
2021/09/21 17:20:37;;;;;;;1.80;1.70;;;17.80;73.10;;;;;;10409653;28;20198;-68
2021/09/21 17:25:59;;;;;;;2.77;1.80;;;17.90;73.10;;;;;;10409622;28;20563;-68
2021/09/21 17:31:21;;;;;;;2.07;1.57;;;17.90;73.00;;;;;;10414586;28;20205;-68
2021/09/21 17:36:44;;;;;;;2.70;1.77;;;17.90;73.00;;;;;;10404812;28;20571;-68
2021/09/21 17:42:07;;;;;;;4.00;1.60;;;17.80;73.00;;;;;;10360177;28;20295;-67
2021/09/21 17:47:29;;;;;;;2.10;1.57;;;17.80;73.10;;;;;;10370998;28;20218;-68
2021/09/21 17:52:56;;;;;;;6.00;1.80;;;17.80;74.00;;;;;;10371491;28;20221;-68
2021/09/21 17:58:19;;;;;;;2.27;1.70;;;17.80;73.80;;;;;;10380906;28;20205;-67
2021/09/21 18:03:41;;;;;;;3.47;2.03;;;17.90;74.00;;;;;;10379891;28;20519;-66
2021/09/21 18:09:05;;;;;;;1.60;1.50;;;18.10;73.20;;;;;;10380513;28;20197;-67
2021/09/21 18:14:27;;;;;;;1.83;1.50;;;18.00;73.20;;;;;;10380073;28;20265;-69
2021/09/21 18:20:51;;;;;;;2.80;1.87;;;17.90;73.40;;;;;;10355696;28;20203;-65
2021/09/21 18:26:16;;;;;;;1.53;1.33;;;17.90;73.40;;;;;;10354256;28;20209;-66
2021/09/21 18:31:38;;;;;;;6.17;1.60;;;17.90;73.50;;;;;;10408817;28;20230;-66
2021/09/21 18:37:01;;;;;;;2.70;1.47;;;17.90;73.50;;;;;;10375581;28;20223;-68
2021/09/21 18:42:25;;;;;;;3.10;1.70;;;17.80;73.60;;;;;;10375298;28;20226;-69
2021/09/21 18:47:47;;;;;;;2.37;1.50;;;17.90;73.70;;;;;;10375867;28;20203;-68
2021/09/21 18:53:09;;;;;;;2.50;1.50;;;17.90;73.70;;;;;;10365409;28;20215;-68
2021/09/21 18:58:33;;;;;;;2.37;1.83;;;17.80;73.60;;;;;;10361881;28;20190;-69
2021/09/21 19:03:55;;;;;;;2.23;1.60;;;17.80;73.70;;;;;;10412157;23;20230;-68
2021/09/21 19:09:19;;;;;;;2.20;1.30;;;17.90;73.80;;;;;;10370918;28;20202;-68
2021/09/21 19:14:42;;;;;;;2.23;1.60;;;17.80;73.70;;;;;;10379120;28;20336;-68
2021/09/21 19:20:06;;;;;;;3.10;1.70;;;17.90;73.80;;;;;;10396735;28;20563;-69
2021/09/21 19:25:28;;;;;;;1.70;1.30;;;17.80;73.80;;;;;;10396673;28;20213;-68
2021/09/21 19:30:52;;;;;;;1.60;1.50;;;17.80;73.80;;;;;;10392910;28;20193;-70
2021/09/21 19:36:14;;;;;;;2.13;1.53;;;17.80;73.80;;;;;;10402536;28;20222;-68
2021/09/21 19:41:36;;;;;;;2.57;1.70;;;17.80;73.80;;;;;;10393955;28;20697;-68
2021/09/21 19:47:00;;;;;;;1.73;1.40;;;17.80;73.80;;;;;;10393734;28;20214;-68
2021/09/21 19:52:23;;;;;;;1.50;1.40;;;17.80;73.90;;;;;;10396276;28;20198;-68
2021/09/21 19:57:45;;;;;;;2.73;1.60;;;17.80;73.90;;;;;;10397019;28;20223;-68
2021/09/21 20:03:09;;;;;;;1.87;1.20;;;17.80;73.90;;;;;;10382404;28;20583;-68
2021/09/21 20:08:31;;;;;;;2.37;1.60;;;17.80;74.00;;;;;;10407552;28;20663;-68
2021/09/21 20:13:53;;;;;;;1.63;1.53;;;17.80;74.00;;;;;;10413013;28;20729;-68
2021/09/21 20:19:17;;;;;;;1.83;1.37;;;17.80;74.00;;;;;;10404630;28;20205;-68
2021/09/21 20:24:39;;;;;;;2.20;1.40;;;17.80;74.00;;;;;;10413379;28;20214;-68
2021/09/21 20:30:02;;;;;;;2.13;1.50;;;17.80;74.00;;;;;;10401347;28;20583;-68
2021/09/21 20:35:29;;;;;;;2.40;1.50;;;17.80;74.00;;;;;;10383720;28;20221;-68
2021/09/21 20:40:53;;;;;;;1.30;1.07;;;17.80;74.10;;;;;;10412898;28;20190;-68
2021/09/21 20:46:15;;;;;;;2.23;1.60;;;17.80;74.10;;;;;;10402198;28;20710;-68
2021/09/21 20:51:40;;;;;;;1.50;1.40;;;17.80;74.10;;;;;;10396879;28;20194;-68
2021/09/21 20:57:03;;;;;;;1.60;1.37;;;17.80;74.10;;;;;;10410551;28;20222;-68
2021/09/21 21:02:25;;;;;;;1.70;1.40;;;17.80;74.20;;;;;;10391514;28;20697;-68
2021/09/21 21:07:48;;;;;;;1.20;1.10;;;17.80;74.20;;;;;;10370367;28;20230;-68
2021/09/21 21:13:10;;;;;;;1.40;1.20;;;17.80;74.20;;;;;;10370150;28;20202;-67
2021/09/21 21:18:33;;;;;;;2.37;1.47;;;17.80;74.20;;;;;;10397248;28;20197;-67
2021/09/21 21:23:57;;;;;;;2.10;1.67;;;17.70;74.20;;;;;;10411195;28;20214;-67
2021/09/21 21:29:19;;;;;;;1.40;1.20;;;17.80;74.30;;;;;;10411159;28;20198;-68
2021/09/21 21:34:41;;;;;;;2.20;1.40;;;17.80;74.30;;;;;;10407368;28;20218;-68
2021/09/21 21:40:06;;;;;;;1.53;1.43;;;17.80;74.30;;;;;;10411653;28;20201;-68
2021/09/21 21:45:28;;;;;;;1.80;1.60;;;17.80;74.30;;;;;;10379220;28;20210;-68
2021/09/21 21:50:51;;;;;;;1.47;1.37;;;17.80;74.40;;;;;;10406592;28;20246;-69
2021/09/21 21:56:14;;;;;;;1.83;1.30;;;17.80;74.40;;;;;;10407732;28;20221;-68
2021/09/21 22:01:36;;;;;;;1.93;1.40;;;17.80;74.40;;;;;;10400185;28;20198;-68
2021/09/21 22:06:58;;;;;;;1.50;1.40;;;17.80;74.40;;;;;;10409421;28;20225;-68
2021/09/21 22:12:22;;;;;;;1.50;1.40;;;17.80;74.50;;;;;;10399224;28;20205;-68
2021/09/21 22:17:44;;;;;;;1.93;1.40;;;17.70;74.40;;;;;;10408652;28;20614;-67
2021/09/21 22:23:07;;;;;;;2.10;1.47;;;17.80;74.50;;;;;;10410631;28;20817;-68
2021/09/21 22:28:30;;;;;;;1.93;1.67;;;17.80;74.50;;;;;;10410767;28;20194;-67
2021/09/21 22:33:52;;;;;;;1.90;1.40;;;17.80;74.50;;;;;;10409623;28;20218;-68
2021/09/21 22:39:17;;;;;;;1.93;1.20;;;17.80;74.50;;;;;;10403968;28;20285;-67
2021/09/21 22:44:40;;;;;;;1.30;1.20;;;17.80;74.60;;;;;;10407403;28;20209;-68
2021/09/21 22:50:03;;;;;;;2.63;1.73;;;17.80;74.60;;;;;;10377653;28;20203;-68
2021/09/21 22:55:26;;;;;;;2.00;1.20;;;17.70;74.60;;;;;;10403277;28;20230;-68
2021/09/21 23:00:49;;;;;;;2.20;1.40;;;17.80;74.60;;;;;;10411049;28;20198;-68
2021/09/21 23:06:12;;;;;;;1.97;1.23;;;17.80;74.60;;;;;;10408301;28;20275;-67
2021/09/21 23:11:34;;;;;;;3.30;1.40;;;17.80;74.70;;;;;;10415808;28;20201;-70
2021/09/21 23:16:57;;;;;;;1.40;1.20;;;17.80;74.70;;;;;;10375199;28;20226;-69
2021/09/21 23:22:19;;;;;;;1.63;1.33;;;17.80;74.80;;;;;;10375276;28;20202;-68
2021/09/21 23:27:42;;;;;;;2.07;1.50;;;17.80;74.70;;;;;;10374226;28;20217;-68
2021/09/21 23:33:05;;;;;;;2.47;1.60;;;17.80;74.80;;;;;;10393901;28;20198;-68
2021/09/21 23:38:28;;;;;;;1.10;1.00;;;17.70;74.70;;;;;;10412663;28;20214;-68
2021/09/21 23:43:50;;;;;;;1.37;1.13;;;17.70;74.80;;;;;;10400519;28;20213;-68
2021/09/21 23:49:13;;;;;;;2.50;1.30;;;17.80;74.80;;;;;;10383274;28;20206;-68
2021/09/21 23:54:35;;;;;;;1.40;1.30;;;17.80;74.80;;;;;;10376168;28;20222;-68
2021/09/21 23:59:59;;;;;;;1.53;1.03;;;17.80;74.80;;;;;;10372775;28;20201;-68
